createdAt,value
2022-07-27T00:09:39.907Z,22.00
2022-07-27T00:24:44.550Z,22.10
2022-07-27T00:39:48.941Z,21.40
2022-07-27T00:54:53.724Z,22.10
2022-07-27T01:09:58.412Z,21.30
2022-07-27T01:25:03.301Z,21.50
2022-07-27T01:40:08.811Z,22.10
2022-07-27T01:55:13.654Z,21.60
2022-07-27T02:10:18.053Z,20.80
2022-07-27T02:25:22.680Z,21.40
2022-07-27T02:40:27.255Z,21.70
2022-07-27T02:55:31.749Z,21.70
2022-07-27T03:10:36.438Z,21.30
2022-07-27T03:25:40.944Z,21.60
2022-07-27T03:40:45.530Z,21.40
2022-07-27T03:55:50.027Z,21.50
2022-07-27T04:10:54.448Z,21.40
2022-07-27T04:26:01.851Z,21.40
2022-07-27T04:41:06.602Z,21.30
2022-07-27T04:56:11.393Z,21.40
2022-07-27T05:11:15.898Z,21.20
2022-07-27T05:26:22.179Z,21.20
2022-07-27T05:41:27.536Z,20.90
2022-07-27T05:56:31.960Z,21.30
2022-07-27T06:11:36.800Z,21.40
2022-07-27T06:26:41.312Z,21.10
2022-07-27T06:41:45.958Z,21.40
2022-07-27T06:56:50.781Z,21.30
2022-07-27T07:11:55.347Z,21.40
2022-07-27T07:26:59.758Z,21.50
2022-07-27T07:42:04.360Z,21.70
2022-07-27T07:57:15.417Z,21.80
2022-07-27T08:12:19.912Z,21.80
2022-07-27T08:27:24.336Z,22.00
2022-07-27T08:42:29.060Z,22.10
2022-07-27T08:57:33.430Z,22.20
2022-07-27T09:12:38.443Z,22.30
2022-07-27T09:27:43.666Z,22.60
2022-07-27T09:43:05.645Z,22.70
2022-07-27T09:58:15.769Z,22.70
2022-07-27T10:13:20.374Z,23.00
2022-07-27T10:28:25.582Z,23.30
2022-07-27T10:43:30.090Z,23.60
2022-07-27T10:58:52.274Z,23.60
2022-07-27T11:13:58.839Z,23.80
2022-07-27T11:29:08.807Z,23.70
2022-07-27T11:44:14.935Z,24.20
2022-07-27T11:59:22.211Z,24.40
2022-07-27T12:14:38.440Z,24.60
2022-07-27T12:30:01.466Z,24.70
2022-07-27T12:45:20.298Z,25.00
2022-07-27T13:00:31.038Z,25.10
2022-07-27T13:15:38.253Z,25.50
2022-07-27T13:30:42.756Z,25.80
2022-07-27T13:45:47.318Z,26.00
2022-07-27T14:00:51.892Z,25.90
2022-07-27T14:15:56.515Z,31.90
2022-07-27T14:31:01.670Z,30.10
2022-07-27T14:46:07.212Z,27.90
2022-07-27T15:01:11.742Z,27.60
2022-07-27T15:16:16.768Z,30.40
2022-07-27T15:31:21.333Z,30.60
2022-07-27T15:46:27.028Z,32.60
2022-07-27T16:01:35.617Z,30.00
2022-07-27T16:16:40.410Z,30.30
2022-07-27T16:31:45.016Z,29.30
2022-07-27T16:46:49.641Z,28.00
2022-07-27T17:01:54.457Z,27.40
2022-07-27T17:16:58.934Z,27.40
2022-07-27T17:32:03.504Z,27.20
2022-07-27T17:47:08.441Z,27.00
2022-07-27T18:02:13.712Z,26.90
2022-07-27T18:17:18.180Z,26.70
2022-07-27T18:32:22.637Z,26.60
2022-07-27T18:47:27.071Z,26.50
2022-07-27T19:02:37.144Z,26.40
2022-07-27T19:17:43.913Z,25.90
2022-07-27T19:32:48.350Z,25.90
2022-07-27T19:47:52.890Z,25.40
2022-07-27T20:02:57.396Z,25.50
2022-07-27T20:18:01.966Z,25.30
2022-07-27T20:33:07.361Z,25.10
2022-07-27T20:48:12.196Z,25.00
2022-07-27T21:03:16.658Z,24.90
2022-07-27T21:18:21.076Z,24.50
2022-07-27T21:33:25.538Z,24.60
2022-07-27T21:48:29.960Z,24.30
2022-07-27T22:03:34.487Z,24.20
2022-07-27T22:18:39.375Z,24.10
2022-07-27T22:33:44.343Z,23.90
2022-07-27T22:48:49.232Z,23.80
2022-07-27T23:03:53.659Z,23.70
2022-07-27T23:18:58.077Z,23.80
2022-07-27T23:34:02.483Z,23.60
2022-07-27T23:49:06.968Z,23.50
